createdAt,value
2022-09-26T00:01:28.496Z,100318.66
2022-09-26T00:04:01.352Z,100306.97
2022-09-26T00:06:30.135Z,100309.72
2022-09-26T00:08:58.990Z,100316.91
2022-09-26T00:11:31.490Z,100307.91
2022-09-26T00:14:01.889Z,100306.97
2022-09-26T00:16:29.002Z,100303.34
2022-09-26T00:18:57.769Z,100293.44
2022-09-26T00:21:30.961Z,100287.16
2022-09-26T00:24:00.270Z,100284.50
2022-09-26T00:26:29.729Z,100273.72
2022-09-26T00:29:04.456Z,100276.41
2022-09-26T00:31:33.071Z,100269.22
2022-09-26T00:33:59.899Z,100261.16
2022-09-26T00:36:37.382Z,100254.91
2022-09-26T00:39:04.629Z,100245.91
2022-09-26T00:41:33.074Z,100254.03
2022-09-26T00:43:59.725Z,100254.91
2022-09-26T00:46:38.136Z,100251.34
2022-09-26T00:49:20.105Z,100249.50
2022-09-26T00:51:57.314Z,100240.50
2022-09-26T00:54:24.846Z,100233.31
2022-09-26T00:56:56.114Z,100228.81
2022-09-26T00:59:31.131Z,100227.91
2022-09-26T01:01:59.340Z,100236.91
2022-09-26T01:04:30.497Z,100231.53
2022-09-26T01:06:59.697Z,100225.25
2022-09-26T01:09:30.573Z,100214.44
2022-09-26T01:12:00.186Z,100214.47
2022-09-26T01:14:27.798Z,100212.69
2022-09-26T01:16:58.294Z,100203.72
2022-09-26T01:19:36.556Z,100209.13
2022-09-26T01:22:19.913Z,100201.03
2022-09-26T01:25:18.853Z,100186.66
2022-09-26T01:28:04.490Z,100195.63
2022-09-26T01:31:07.633Z,100191.13
2022-09-26T01:33:48.147Z,100183.94
2022-09-26T01:36:44.468Z,100197.44
2022-09-26T01:39:20.209Z,100191.22
2022-09-26T01:42:23.302Z,100190.25
2022-09-26T01:45:07.503Z,100186.66
2022-09-26T01:48:01.891Z,100178.56
2022-09-26T01:51:01.581Z,100175.88
2022-09-26T01:53:49.099Z,100177.66
2022-09-26T01:56:23.787Z,100168.66
2022-09-26T01:59:02.727Z,100168.63
2022-09-26T02:01:37.546Z,100169.50
2022-09-26T02:04:11.277Z,100161.41
2022-09-26T02:06:41.480Z,100156.00
2022-09-26T02:09:13.937Z,100157.75
2022-09-26T02:11:45.458Z,100156.81
2022-09-26T02:14:20.429Z,100141.53
2022-09-26T02:16:53.858Z,100137.00
2022-09-26T02:19:28.506Z,100134.25
2022-09-26T02:21:58.641Z,100138.72
2022-09-26T02:24:25.439Z,100119.81
2022-09-26T02:26:54.081Z,100119.81
2022-09-26T02:29:21.825Z,100117.97
2022-09-26T02:32:05.758Z,100108.94
2022-09-26T02:34:33.279Z,100111.63
2022-09-26T02:37:13.297Z,100107.09
2022-09-26T02:39:42.398Z,100102.63
2022-09-26T02:42:24.262Z,100099.00
2022-09-26T02:45:29.754Z,100089.09
2022-09-26T02:48:25.260Z,100094.47
2022-09-26T02:51:00.757Z,100087.22
2022-09-26T02:53:39.968Z,100087.22
2022-09-26T02:56:27.742Z,100080.06
2022-09-26T02:59:03.771Z,100066.63
2022-09-26T03:01:43.875Z,100079.22
2022-09-26T03:04:41.897Z,100063.91
2022-09-26T03:07:19.550Z,100070.25
2022-09-26T03:09:48.951Z,100059.47
2022-09-26T03:12:16.682Z,100067.56
2022-09-26T03:14:46.663Z,100051.38
2022-09-26T03:17:18.498Z,100054.97
2022-09-26T03:19:59.641Z,100047.75
2022-09-26T03:22:26.413Z,100048.66
2022-09-26T03:24:53.990Z,100041.44
2022-09-26T03:27:20.990Z,100042.31
2022-09-26T03:29:49.465Z,100042.31
2022-09-26T03:32:20.526Z,100037.84
2022-09-26T03:34:48.584Z,100035.16
2022-09-26T03:37:17.002Z,100027.97
2022-09-26T03:39:45.005Z,100023.47
2022-09-26T03:42:22.827Z,100022.59
2022-09-26T03:44:49.497Z,100010.88
2022-09-26T03:47:41.930Z,100015.41
2022-09-26T03:50:09.339Z,100011.78
2022-09-26T03:52:36.480Z,100015.31
2022-09-26T03:55:04.322Z,100010.84
2022-09-26T03:57:30.865Z,100008.09
2022-09-26T04:00:07.969Z,99998.19
2022-09-26T04:02:44.061Z,99993.69
2022-09-26T04:05:22.978Z,99994.53
2022-09-26T04:07:49.596Z,99981.97
2022-09-26T04:10:16.360Z,99983.72
2022-09-26T04:12:44.566Z,99976.53
2022-09-26T04:15:11.617Z,99973.81
2022-09-26T04:17:39.035Z,99970.19
2022-09-26T04:20:05.974Z,99970.16
2022-09-26T04:22:34.146Z,99961.13
2022-09-26T04:25:01.023Z,99964.69
2022-09-26T04:27:28.736Z,99952.09
2022-09-26T04:29:57.300Z,99952.97
2022-09-26T04:32:34.656Z,99952.06
2022-09-26T04:35:19.639Z,99952.03
2022-09-26T04:37:47.212Z,99949.31
2022-09-26T04:40:14.336Z,99946.59
2022-09-26T04:42:52.261Z,99944.75
2022-09-26T04:45:18.836Z,99936.66
2022-09-26T04:47:45.774Z,99942.03
2022-09-26T04:50:43.497Z,99936.63
2022-09-26T04:53:12.226Z,99927.63
2022-09-26T04:55:50.979Z,99938.41
2022-09-26T04:58:21.718Z,99926.66
2022-09-26T05:00:49.708Z,99917.63
2022-09-26T05:03:26.133Z,99908.59
2022-09-26T05:05:53.185Z,99915.72
2022-09-26T05:08:20.069Z,99903.13
2022-09-26T05:10:53.204Z,99904.91
2022-09-26T05:13:19.793Z,99895.03
2022-09-26T05:15:47.766Z,99892.22
2022-09-26T05:18:15.085Z,99894.94
2022-09-26T05:20:46.322Z,99880.56
2022-09-26T05:23:12.935Z,99890.50
2022-09-26T05:25:59.680Z,99888.72
2022-09-26T05:28:27.311Z,99878.78
2022-09-26T05:30:54.386Z,99880.56
2022-09-26T05:33:22.330Z,99876.97
2022-09-26T05:35:54.791Z,99863.41
2022-09-26T05:38:22.009Z,99870.59
2022-09-26T05:40:56.455Z,99868.75
2022-09-26T05:43:26.845Z,99872.38
2022-09-26T05:45:59.784Z,99872.31
2022-09-26T05:48:32.186Z,99866.03
2022-09-26T05:51:13.897Z,99858.81
2022-09-26T05:53:45.278Z,99848.88
2022-09-26T05:56:18.734Z,99850.63
2022-09-26T05:59:00.458Z,99851.44
2022-09-26T06:01:46.760Z,99853.16
2022-09-26T06:04:25.777Z,99854.00
2022-09-26T06:07:12.454Z,99849.34
2022-09-26T06:09:39.095Z,99850.16
2022-09-26T06:12:19.536Z,99855.41
2022-09-26T06:14:46.744Z,99851.69
2022-09-26T06:17:13.531Z,99849.69
2022-09-26T06:19:40.282Z,99847.84
2022-09-26T06:22:07.174Z,99841.50
2022-09-26T06:24:33.842Z,99832.41
2022-09-26T06:27:00.885Z,99836.81
2022-09-26T06:29:29.853Z,99845.72
2022-09-26T06:31:57.887Z,99833.03
2022-09-26T06:34:26.565Z,99833.91
2022-09-26T06:37:04.908Z,99831.97
2022-09-26T06:39:35.873Z,99828.25
2022-09-26T06:42:07.233Z,99823.53
2022-09-26T06:44:52.551Z,99819.72
2022-09-26T06:47:25.249Z,99814.25
2022-09-26T06:50:30.494Z,99805.06
2022-09-26T06:53:08.692Z,99803.22
2022-09-26T06:55:38.711Z,99801.34
2022-09-26T06:58:05.306Z,99794.00
2022-09-26T07:00:46.749Z,99795.78
2022-09-26T07:03:32.610Z,99799.25
2022-09-26T07:06:14.798Z,99799.16
2022-09-26T07:09:01.511Z,99797.31
2022-09-26T07:12:09.916Z,99794.44
2022-09-26T07:14:28.880Z,99788.06
2022-09-26T07:17:01.005Z,99790.69
2022-09-26T07:19:51.728Z,99789.75
2022-09-26T07:22:53.925Z,99791.38
2022-09-26T07:25:20.753Z,99785.88
2022-09-26T07:27:52.469Z,99773.09
2022-09-26T07:30:23.448Z,99783.72
2022-09-26T07:33:05.376Z,99773.69
2022-09-26T07:35:45.255Z,99777.09
2022-09-26T07:38:13.062Z,99758.94
2022-09-26T07:40:40.452Z,99763.38
2022-09-26T07:43:19.812Z,99762.34
2022-09-26T07:46:09.667Z,99759.53
2022-09-26T07:48:55.840Z,99761.91
2022-09-26T07:51:56.906Z,99758.81
2022-09-26T07:54:29.857Z,99750.31
2022-09-26T07:57:24.462Z,99747.13
2022-09-26T08:00:14.852Z,99745.72
2022-09-26T08:02:47.320Z,99746.41
2022-09-26T08:05:20.036Z,99751.53
2022-09-26T08:07:49.076Z,99755.84
2022-09-26T08:10:35.825Z,99747.56
2022-09-26T08:13:20.930Z,99749.44
2022-09-26T08:16:11.646Z,99747.69
2022-09-26T08:18:44.131Z,99744.00
2022-09-26T08:21:11.265Z,99742.16
2022-09-26T08:23:38.288Z,99742.97
2022-09-26T08:26:25.452Z,99741.84
2022-09-26T08:28:59.824Z,99738.94
2022-09-26T08:31:26.718Z,99734.31
2022-09-26T08:33:53.929Z,99733.19
2022-09-26T08:36:21.460Z,99731.19
2022-09-26T08:39:11.317Z,99730.88
2022-09-26T08:42:29.843Z,99731.41
2022-09-26T08:46:10.144Z,99723.84
2022-09-26T08:49:24.767Z,99727.53
2022-09-26T08:51:54.581Z,99723.97
2022-09-26T08:54:31.583Z,99716.75
2022-09-26T08:57:15.729Z,99722.19
2022-09-26T08:59:45.649Z,99721.31
2022-09-26T09:02:26.417Z,99714.84
2022-09-26T09:04:58.505Z,99705.88
2022-09-26T09:07:28.457Z,99704.09
2022-09-26T09:10:08.142Z,99706.03
2022-09-26T09:12:58.436Z,99700.53
2022-09-26T09:16:07.268Z,99694.97
2022-09-26T09:19:41.578Z,99696.34
2022-09-26T09:22:44.879Z,99690.69
2022-09-26T09:25:39.793Z,99694.00
2022-09-26T09:28:29.190Z,99690.22
2022-09-26T09:31:02.474Z,99686.19
2022-09-26T09:33:58.708Z,99687.72
2022-09-26T09:36:51.175Z,99685.00
2022-09-26T09:39:26.663Z,99682.09
2022-09-26T09:42:13.148Z,99685.59
2022-09-26T09:44:55.869Z,99681.81
2022-09-26T09:47:31.455Z,99675.34
2022-09-26T09:50:01.730Z,99668.97
2022-09-26T09:52:46.123Z,99668.75
2022-09-26T09:55:50.162Z,99671.19
2022-09-26T09:58:30.368Z,99668.09
2022-09-26T10:01:19.138Z,99659.94
2022-09-26T10:04:03.930Z,99658.09
2022-09-26T10:06:45.565Z,99660.50
2022-09-26T10:09:38.504Z,99653.78
2022-09-26T10:12:32.919Z,99644.69
2022-09-26T10:15:26.234Z,99635.91
2022-09-26T10:18:24.545Z,99647.63
2022-09-26T10:21:12.824Z,99640.06
2022-09-26T10:23:44.605Z,99633.84
2022-09-26T10:26:35.877Z,99630.56
2022-09-26T10:29:07.544Z,99629.88
2022-09-26T10:31:42.337Z,99633.38
2022-09-26T10:34:29.105Z,99627.28
2022-09-26T10:36:56.316Z,99631.88
2022-09-26T10:39:46.312Z,99625.81
2022-09-26T10:42:20.111Z,99622.31
2022-09-26T10:44:50.490Z,99631.38
2022-09-26T10:47:24.734Z,99617.97
2022-09-26T10:50:27.777Z,99621.75
2022-09-26T10:53:15.064Z,99619.81
2022-09-26T10:55:46.433Z,99621.59
2022-09-26T10:58:22.513Z,99612.44
2022-09-26T11:00:52.269Z,99616.19
2022-09-26T11:03:32.384Z,99611.59
2022-09-26T11:06:27.952Z,99610.28
2022-09-26T11:09:03.552Z,99611.66
2022-09-26T11:11:41.074Z,99597.91
2022-09-26T11:14:09.163Z,99597.69
2022-09-26T11:16:39.363Z,99588.59
2022-09-26T11:19:26.796Z,99585.88
2022-09-26T11:22:27.132Z,99585.88
2022-09-26T11:25:06.685Z,99578.66
2022-09-26T11:27:48.100Z,99566.94
2022-09-26T11:30:22.750Z,99572.13
2022-09-26T11:33:00.453Z,99565.66
2022-09-26T11:36:05.485Z,99569.34
2022-09-26T11:38:47.617Z,99556.69
2022-09-26T11:41:38.316Z,99551.88
2022-09-26T11:44:34.686Z,99549.16
2022-09-26T11:47:51.686Z,99534.13
2022-09-26T11:50:43.575Z,99547.44
2022-09-26T11:53:45.829Z,99544.31
2022-09-26T11:56:25.037Z,99556.69
2022-09-26T11:59:13.691Z,99548.63
2022-09-26T12:02:01.897Z,99546.84
2022-09-26T12:04:51.770Z,99548.75
2022-09-26T12:07:21.320Z,99539.91
2022-09-26T12:10:09.577Z,99530.66
2022-09-26T12:12:56.468Z,99527.47
2022-09-26T12:15:26.060Z,99529.75
2022-09-26T12:18:13.304Z,99524.41
2022-09-26T12:21:15.371Z,99531.19
2022-09-26T12:23:48.636Z,99534.72
2022-09-26T12:26:39.704Z,99535.63
2022-09-26T12:29:09.351Z,99524.22
2022-09-26T12:31:50.941Z,99518.69
2022-09-26T12:34:32.989Z,99514.44
2022-09-26T12:37:26.013Z,99514.63
2022-09-26T12:40:10.970Z,99505.56
2022-09-26T12:43:02.262Z,99491.81
2022-09-26T12:45:49.679Z,99488.16
2022-09-26T12:48:38.452Z,99484.59
2022-09-26T12:51:30.028Z,99483.66
2022-09-26T12:54:13.033Z,99477.28
2022-09-26T12:57:18.805Z,99474.38
2022-09-26T13:00:23.148Z,99471.75
2022-09-26T13:03:26.091Z,99471.75
2022-09-26T13:06:11.031Z,99470.88
2022-09-26T13:09:00.622Z,99461.66
2022-09-26T13:11:41.813Z,99453.50
2022-09-26T13:14:41.961Z,99455.31
2022-09-26T13:17:20.177Z,99453.59
2022-09-26T13:19:54.325Z,99446.38
2022-09-26T13:22:31.610Z,99442.84
2022-09-26T13:25:17.561Z,99438.25
2022-09-26T13:27:48.303Z,99429.09
2022-09-26T13:30:20.988Z,99430.03
2022-09-26T13:32:57.249Z,99424.53
2022-09-26T13:35:26.133Z,99439.19
2022-09-26T13:38:09.965Z,99420.44
2022-09-26T13:41:14.115Z,99432.25
2022-09-26T13:44:03.553Z,99420.63
2022-09-26T13:46:30.145Z,99419.88
2022-09-26T13:49:07.958Z,99420.25
2022-09-26T13:51:49.553Z,99418.72
2022-09-26T13:55:04.609Z,99418.88
2022-09-26T13:57:37.057Z,99409.75
2022-09-26T14:00:29.951Z,99409.75
2022-09-26T14:03:18.382Z,99407.44
2022-09-26T14:05:46.307Z,99406.56
2022-09-26T14:09:16.569Z,99404.94
2022-09-26T14:11:49.110Z,99396.88
2022-09-26T14:14:19.219Z,99386.03
2022-09-26T14:16:51.636Z,99385.13
2022-09-26T14:19:37.457Z,99383.41
2022-09-26T14:22:25.621Z,99374.28
2022-09-26T14:24:56.536Z,99368.84
2022-09-26T14:27:37.459Z,99366.16
2022-09-26T14:30:29.661Z,99368.69
2022-09-26T14:33:16.081Z,99360.78
2022-09-26T14:35:44.621Z,99357.31
2022-09-26T14:38:21.152Z,99356.50
2022-09-26T14:40:55.795Z,99347.44
2022-09-26T14:43:24.822Z,99348.31
2022-09-26T14:45:53.349Z,99337.59
2022-09-26T14:48:36.945Z,99347.53
2022-09-26T14:51:22.083Z,99338.59
2022-09-26T14:53:48.613Z,99335.06
2022-09-26T14:56:35.262Z,99333.53
2022-09-26T14:59:25.000Z,99324.34
2022-09-26T15:01:53.290Z,99320.94
2022-09-26T15:04:29.978Z,99311.78
2022-09-26T15:07:01.611Z,99305.50
2022-09-26T15:09:59.004Z,99301.03
2022-09-26T15:13:03.885Z,99296.59
2022-09-26T15:15:37.644Z,99295.59
2022-09-26T15:18:15.533Z,99287.53
2022-09-26T15:20:47.913Z,99285.63
2022-09-26T15:23:51.727Z,99279.22
2022-09-26T15:26:25.262Z,99268.31
2022-09-26T15:28:54.553Z,99262.72
2022-09-26T15:31:39.859Z,99263.50
2022-09-26T15:34:24.188Z,99258.94
2022-09-26T15:36:59.565Z,99257.16
2022-09-26T15:39:37.194Z,99251.56
2022-09-26T15:42:37.487Z,99249.72
2022-09-26T15:45:23.299Z,99246.19
2022-09-26T15:47:49.940Z,99241.72
2022-09-26T15:50:21.165Z,99224.50
2022-09-26T15:52:47.729Z,99226.25
2022-09-26T15:55:28.303Z,99226.25
2022-09-26T15:58:00.892Z,99226.16
2022-09-26T16:00:34.469Z,99226.03
2022-09-26T16:04:02.193Z,99221.41
2022-09-26T16:06:34.052Z,99218.69
2022-09-26T16:09:40.093Z,99212.31
2022-09-26T16:12:15.967Z,99209.47
2022-09-26T16:15:00.226Z,99211.38
2022-09-26T16:17:49.114Z,99204.94
2022-09-26T16:20:15.997Z,99212.19
2022-09-26T16:22:48.896Z,99206.03
2022-09-26T16:25:15.327Z,99207.84
2022-09-26T16:27:42.254Z,99203.41
2022-09-26T16:30:23.661Z,99200.69
2022-09-26T16:32:59.133Z,99195.25
2022-09-26T16:35:29.566Z,99193.50
2022-09-26T16:37:59.730Z,99195.25
2022-09-26T16:40:28.053Z,99192.56
2022-09-26T16:43:23.958Z,99193.50
2022-09-26T16:45:56.247Z,99190.78
2022-09-26T16:48:52.617Z,99194.44
2022-09-26T16:51:35.276Z,99188.22
2022-09-26T16:54:07.501Z,99190.09
2022-09-26T16:56:38.030Z,99189.31
2022-09-26T16:59:11.735Z,99190.34
2022-09-26T17:01:56.184Z,99185.19
2022-09-26T17:04:31.121Z,99176.22
2022-09-26T17:07:07.462Z,99181.78
2022-09-26T17:09:36.365Z,99179.16
2022-09-26T17:12:06.190Z,99173.75
2022-09-26T17:14:41.221Z,99172.97
2022-09-26T17:17:16.341Z,99166.72
2022-09-26T17:19:46.110Z,99165.91
2022-09-26T17:22:17.684Z,99167.81
2022-09-26T17:24:44.617Z,99159.75
2022-09-26T17:27:16.379Z,99155.25
2022-09-26T17:29:49.012Z,99159.75
2022-09-26T17:32:24.992Z,99149.81
2022-09-26T17:34:51.725Z,99145.25
2022-09-26T17:37:20.110Z,99151.53
2022-09-26T17:39:46.633Z,99142.63
2022-09-26T17:42:13.539Z,99147.09
2022-09-26T17:44:40.707Z,99142.63
2022-09-26T17:47:07.528Z,99140.84
2022-09-26T17:49:39.236Z,99146.34
2022-09-26T17:52:23.146Z,99139.22
2022-09-26T17:54:53.830Z,99142.88
2022-09-26T17:57:25.465Z,99134.66
2022-09-26T17:59:55.373Z,99135.56
2022-09-26T18:02:29.999Z,99138.34
2022-09-26T18:04:59.200Z,99133.81
2022-09-26T18:07:31.266Z,99133.81
2022-09-26T18:09:59.125Z,99123.09
2022-09-26T18:12:26.433Z,99115.91
2022-09-26T18:14:55.245Z,99124.97
2022-09-26T18:17:21.917Z,99124.03
2022-09-26T18:19:50.487Z,99118.75
2022-09-26T18:22:21.606Z,99118.94
2022-09-26T18:24:50.988Z,99114.66
2022-09-26T18:27:17.858Z,99110.31
2022-09-26T18:29:47.773Z,99107.63
2022-09-26T18:32:25.873Z,99110.44
2022-09-26T18:34:53.894Z,99099.03
2022-09-26T18:37:21.781Z,99104.84
2022-09-26T18:39:53.626Z,99109.31
2022-09-26T18:42:24.486Z,99093.34
2022-09-26T18:45:04.204Z,99097.16
2022-09-26T18:47:44.515Z,99099.13
2022-09-26T18:50:38.456Z,99094.81
2022-09-26T18:53:20.074Z,99093.09
2022-09-26T18:56:05.317Z,99105.84
2022-09-26T18:58:34.115Z,99096.88
2022-09-26T19:01:27.412Z,99097.88
2022-09-26T19:03:57.042Z,99092.72
2022-09-26T19:06:38.541Z,99089.25
2022-09-26T19:09:13.386Z,99099.31
2022-09-26T19:11:39.966Z,99091.25
2022-09-26T19:14:13.347Z,99087.69
2022-09-26T19:16:41.241Z,99086.78
2022-09-26T19:19:07.776Z,99092.31
2022-09-26T19:21:38.850Z,99092.56
2022-09-26T19:24:12.216Z,99083.63
2022-09-26T19:26:42.408Z,99092.81
2022-09-26T19:29:14.311Z,99087.53
2022-09-26T19:31:42.704Z,99078.50
2022-09-26T19:34:17.890Z,99080.34
2022-09-26T19:36:44.509Z,99082.22
2022-09-26T19:39:15.660Z,99072.34
2022-09-26T19:41:42.229Z,99070.56
2022-09-26T19:44:09.284Z,99067.94
2022-09-26T19:46:37.371Z,99075.25
2022-09-26T19:49:05.773Z,99069.00
2022-09-26T19:51:37.121Z,99063.78
2022-09-26T19:54:06.685Z,99064.66
2022-09-26T19:56:34.965Z,99057.47
2022-09-26T19:59:01.790Z,99050.34
2022-09-26T20:01:28.412Z,99062.16
2022-09-26T20:03:55.094Z,99054.09
2022-09-26T20:06:24.508Z,99046.00
2022-09-26T20:08:56.397Z,99044.31
2022-09-26T20:11:27.033Z,99044.31
2022-09-26T20:14:12.646Z,99034.47
2022-09-26T20:16:42.444Z,99031.88
2022-09-26T20:19:18.460Z,99025.53
2022-09-26T20:21:47.314Z,99026.38
2022-09-26T20:24:18.460Z,99022.69
2022-09-26T20:26:46.574Z,99020.13
2022-09-26T20:29:15.510Z,99012.94
2022-09-26T20:31:43.467Z,99012.13
2022-09-26T20:34:16.975Z,99015.72
2022-09-26T20:36:48.861Z,99006.72
2022-09-26T20:39:26.065Z,99003.13
2022-09-26T20:41:52.910Z,98994.22
2022-09-26T20:44:27.239Z,98989.69
2022-09-26T20:47:04.080Z,98989.69
2022-09-26T20:49:41.184Z,98989.69
2022-09-26T20:52:18.021Z,98976.16
2022-09-26T20:54:45.758Z,98973.47
2022-09-26T20:57:12.773Z,98978.88
2022-09-26T20:59:41.521Z,98965.28
2022-09-26T21:02:23.447Z,98966.31
2022-09-26T21:04:51.358Z,98971.72
2022-09-26T21:07:18.375Z,98960.91
2022-09-26T21:09:45.273Z,98965.47
2022-09-26T21:12:17.003Z,98963.66
2022-09-26T21:14:44.228Z,98949.19
2022-09-26T21:17:37.021Z,98951.97
2022-09-26T21:20:04.307Z,98940.28
2022-09-26T21:22:49.465Z,98948.41
2022-09-26T21:25:21.034Z,98948.44
2022-09-26T21:27:51.067Z,98935.88
2022-09-26T21:30:21.660Z,98937.63
2022-09-26T21:32:53.298Z,98933.97
2022-09-26T21:35:22.831Z,98925.88
2022-09-26T21:37:52.057Z,98929.50
2022-09-26T21:40:26.143Z,98921.38
2022-09-26T21:42:56.605Z,98918.69
2022-09-26T21:45:27.534Z,98923.25
2022-09-26T21:47:55.716Z,98910.59
2022-09-26T21:50:23.305Z,98916.00
2022-09-26T21:52:54.865Z,98910.59
2022-09-26T21:55:29.717Z,98908.88
2022-09-26T21:58:02.092Z,98908.97
2022-09-26T22:00:28.749Z,98904.53
2022-09-26T22:03:25.281Z,98906.38
2022-09-26T22:05:53.913Z,98898.28
2022-09-26T22:08:21.150Z,98890.19
2022-09-26T22:10:47.683Z,98887.47
2022-09-26T22:13:14.169Z,98889.31
2022-09-26T22:15:40.809Z,98885.72
2022-09-26T22:18:07.334Z,98876.66
2022-09-26T22:20:34.131Z,98880.31
2022-09-26T22:23:00.967Z,98873.16
2022-09-26T22:25:27.650Z,98873.16
2022-09-26T22:27:54.473Z,98870.56
2022-09-26T22:30:51.191Z,98866.00
2022-09-26T22:33:18.673Z,98863.34
2022-09-26T22:35:49.448Z,98862.59
2022-09-26T22:38:16.201Z,98867.16
2022-09-26T22:40:42.889Z,98857.25
2022-09-26T22:43:09.415Z,98848.25
2022-09-26T22:45:36.245Z,98844.59
2022-09-26T22:48:03.596Z,98855.53
2022-09-26T22:50:30.113Z,98841.22
2022-09-26T22:52:59.006Z,98842.13
2022-09-26T22:55:25.554Z,98835.81
2022-09-26T22:57:59.410Z,98833.09
2022-09-26T23:00:25.989Z,98831.34
2022-09-26T23:02:52.732Z,98830.41
2022-09-26T23:05:19.321Z,98828.63
2022-09-26T23:07:45.946Z,98823.22
2022-09-26T23:10:14.618Z,98818.72
2022-09-26T23:12:41.908Z,98819.66
2022-09-26T23:15:09.377Z,98812.56
2022-09-26T23:17:35.876Z,98817.97
2022-09-26T23:20:02.454Z,98812.56
2022-09-26T23:22:29.010Z,98800.94
2022-09-26T23:24:57.858Z,98803.66
2022-09-26T23:27:26.201Z,98801.81
2022-09-26T23:29:53.738Z,98802.69
2022-09-26T23:32:20.241Z,98797.41
2022-09-26T23:34:46.784Z,98792.84
2022-09-26T23:37:13.645Z,98781.28
2022-09-26T23:40:08.517Z,98777.56
2022-09-26T23:42:37.973Z,98773.03
2022-09-26T23:45:07.291Z,98776.63
2022-09-26T23:47:34.610Z,98768.47
2022-09-26T23:50:03.422Z,98771.25
2022-09-26T23:52:30.584Z,98763.13
2022-09-26T23:55:00.225Z,98772.97
2022-09-26T23:57:26.944Z,98760.44
2022-09-26T23:59:53.473Z,98757.75
